sensor_id;sensor_type;location;lat;lon;timestamp;temperature;humidity
11615;DHT22;5863;52.832;4.758;2022-12-07T00:01:16;6.50;99.90
11615;DHT22;5863;52.832;4.758;2022-12-07T00:03:44;6.40;99.90
11615;DHT22;5863;52.832;4.758;2022-12-07T00:06:13;6.50;99.90
11615;DHT22;5863;52.832;4.758;2022-12-07T00:08:42;6.40;99.90
11615;DHT22;5863;52.832;4.758;2022-12-07T00:11:10;6.40;99.90
11615;DHT22;5863;52.832;4.758;2022-12-07T00:13:38;6.40;99.90
11615;DHT22;5863;52.832;4.758;2022-12-07T00:16:07;6.40;99.90
11615;DHT22;5863;52.832;4.758;2022-12-07T00:18:34;6.40;99.90
11615;DHT22;5863;52.832;4.758;2022-12-07T00:21:02;6.40;99.90
11615;DHT22;5863;52.832;4.758;2022-12-07T00:23:30;6.50;99.90
11615;DHT22;5863;52.832;4.758;2022-12-07T00:26:03;6.60;99.90
11615;DHT22;5863;52.832;4.758;2022-12-07T00:28:30;6.70;99.90
11615;DHT22;5863;52.832;4.758;2022-12-07T00:31:00;6.80;99.90
11615;DHT22;5863;52.832;4.758;2022-12-07T00:33:27;6.90;99.90
11615;DHT22;5863;52.832;4.758;2022-12-07T00:35:55;6.90;99.90
11615;DHT22;5863;52.832;4.758;2022-12-07T00:38:22;6.80;99.90
11615;DHT22;5863;52.832;4.758;2022-12-07T00:40:54;6.80;99.90
11615;DHT22;5863;52.832;4.758;2022-12-07T00:43:22;6.80;99.90
11615;DHT22;5863;52.832;4.758;2022-12-07T00:45:49;6.70;99.90
11615;DHT22;5863;52.832;4.758;2022-12-07T00:48:16;6.60;99.90
11615;DHT22;5863;52.832;4.758;2022-12-07T00:50:42;6.60;99.90
11615;DHT22;5863;52.832;4.758;2022-12-07T00:53:09;6.60;99.90
11615;DHT22;5863;52.832;4.758;2022-12-07T00:55:36;6.50;99.90
11615;DHT22;5863;52.832;4.758;2022-12-07T00:58:03;6.60;99.90
11615;DHT22;5863;52.832;4.758;2022-12-07T01:00:31;6.50;99.90
11615;DHT22;5863;52.832;4.758;2022-12-07T01:03:00;6.50;99.90
11615;DHT22;5863;52.832;4.758;2022-12-07T01:05:26;6.50;99.90
11615;DHT22;5863;52.832;4.758;2022-12-07T01:07:54;6.50;99.90
11615;DHT22;5863;52.832;4.758;2022-12-07T01:10:21;6.60;99.90
11615;DHT22;5863;52.832;4.758;2022-12-07T01:12:48;6.80;99.90
11615;DHT22;5863;52.832;4.758;2022-12-07T01:15:15;6.80;99.90
11615;DHT22;5863;52.832;4.758;2022-12-07T01:17:48;6.90;99.90
11615;DHT22;5863;52.832;4.758;2022-12-07T01:20:14;6.90;99.90
11615;DHT22;5863;52.832;4.758;2022-12-07T01:22:42;6.90;99.90
11615;DHT22;5863;52.832;4.758;2022-12-07T01:25:10;6.80;99.90
11615;DHT22;5863;52.832;4.758;2022-12-07T01:27:37;6.80;99.90
11615;DHT22;5863;52.832;4.758;2022-12-07T01:30:07;6.70;99.90
11615;DHT22;5863;52.832;4.758;2022-12-07T01:32:34;6.60;99.90
11615;DHT22;5863;52.832;4.758;2022-12-07T01:35:02;6.50;99.90
11615;DHT22;5863;52.832;4.758;2022-12-07T01:37:35;6.40;99.90
11615;DHT22;5863;52.832;4.758;2022-12-07T01:40:02;6.40;99.90
11615;DHT22;5863;52.832;4.758;2022-12-07T01:42:29;6.40;99.90
11615;DHT22;5863;52.832;4.758;2022-12-07T01:45:37;6.40;99.90
11615;DHT22;5863;52.832;4.758;2022-12-07T01:48:05;6.40;99.90
11615;DHT22;5863;52.832;4.758;2022-12-07T01:50:37;6.50;99.90
11615;DHT22;5863;52.832;4.758;2022-12-07T01:53:06;6.50;99.90
11615;DHT22;5863;52.832;4.758;2022-12-07T01:55:37;6.60;99.90
11615;DHT22;5863;52.832;4.758;2022-12-07T01:58:04;6.60;99.90
11615;DHT22;5863;52.832;4.758;2022-12-07T02:00:31;6.60;99.90
11615;DHT22;5863;52.832;4.758;2022-12-07T02:03:04;6.70;99.90
11615;DHT22;5863;52.832;4.758;2022-12-07T02:05:32;6.70;99.90
11615;DHT22;5863;52.832;4.758;2022-12-07T02:08:03;6.70;99.90
11615;DHT22;5863;52.832;4.758;2022-12-07T02:10:31;6.70;99.90
11615;DHT22;5863;52.832;4.758;2022-12-07T02:13:09;6.80;99.90
11615;DHT22;5863;52.832;4.758;2022-12-07T02:15:56;6.80;99.90
11615;DHT22;5863;52.832;4.758;2022-12-07T02:18:34;6.90;99.90
11615;DHT22;5863;52.832;4.758;2022-12-07T02:21:08;6.90;99.90
11615;DHT22;5863;52.832;4.758;2022-12-07T02:24:01;6.90;99.90
11615;DHT22;5863;52.832;4.758;2022-12-07T02:29:34;6.70;99.90
11615;DHT22;5863;52.832;4.758;2022-12-07T02:32:06;6.60;99.90
11615;DHT22;5863;52.832;4.758;2022-12-07T02:34:42;6.60;99.90
11615;DHT22;5863;52.832;4.758;2022-12-07T02:37:29;6.50;99.90
11615;DHT22;5863;52.832;4.758;2022-12-07T02:40:04;6.40;99.90
11615;DHT22;5863;52.832;4.758;2022-12-07T02:42:36;6.40;99.90
11615;DHT22;5863;52.832;4.758;2022-12-07T02:45:06;6.40;99.90
11615;DHT22;5863;52.832;4.758;2022-12-07T02:47:34;6.50;99.90
11615;DHT22;5863;52.832;4.758;2022-12-07T02:50:04;6.50;99.90
11615;DHT22;5863;52.832;4.758;2022-12-07T02:52:31;6.40;99.90
11615;DHT22;5863;52.832;4.758;2022-12-07T02:54:58;6.30;99.90
11615;DHT22;5863;52.832;4.758;2022-12-07T02:57:42;6.40;99.90
11615;DHT22;5863;52.832;4.758;2022-12-07T03:00:16;6.40;99.90
11615;DHT22;5863;52.832;4.758;2022-12-07T03:02:53;6.50;99.90
11615;DHT22;5863;52.832;4.758;2022-12-07T03:05:45;6.50;99.90
11615;DHT22;5863;52.832;4.758;2022-12-07T03:08:23;6.60;99.90
11615;DHT22;5863;52.832;4.758;2022-12-07T03:10:56;6.50;99.90
11615;DHT22;5863;52.832;4.758;2022-12-07T03:13:29;6.60;99.90
11615;DHT22;5863;52.832;4.758;2022-12-07T03:16:04;6.60;99.90
11615;DHT22;5863;52.832;4.758;2022-12-07T03:18:36;6.70;99.90
11615;DHT22;5863;52.832;4.758;2022-12-07T03:21:11;6.70;99.90
11615;DHT22;5863;52.832;4.758;2022-12-07T03:23:40;6.70;99.90
11615;DHT22;5863;52.832;4.758;2022-12-07T03:26:11;6.70;99.90
11615;DHT22;5863;52.832;4.758;2022-12-07T03:28:41;6.70;99.90
11615;DHT22;5863;52.832;4.758;2022-12-07T03:31:14;6.70;99.90
11615;DHT22;5863;52.832;4.758;2022-12-07T03:33:48;6.70;99.90
11615;DHT22;5863;52.832;4.758;2022-12-07T03:36:21;6.80;99.90
11615;DHT22;5863;52.832;4.758;2022-12-07T03:38:54;6.80;99.90
11615;DHT22;5863;52.832;4.758;2022-12-07T03:41:23;6.80;99.90
11615;DHT22;5863;52.832;4.758;2022-12-07T03:43:51;6.70;99.90
11615;DHT22;5863;52.832;4.758;2022-12-07T03:46:27;6.80;99.90
11615;DHT22;5863;52.832;4.758;2022-12-07T03:49:02;6.80;99.90
11615;DHT22;5863;52.832;4.758;2022-12-07T03:51:36;6.70;99.90
11615;DHT22;5863;52.832;4.758;2022-12-07T03:54:10;6.60;99.90
11615;DHT22;5863;52.832;4.758;2022-12-07T03:56:39;6.60;99.90
11615;DHT22;5863;52.832;4.758;2022-12-07T03:59:07;6.50;99.90
11615;DHT22;5863;52.832;4.758;2022-12-07T04:01:35;6.40;99.90
11615;DHT22;5863;52.832;4.758;2022-12-07T04:04:02;6.40;99.90
11615;DHT22;5863;52.832;4.758;2022-12-07T04:06:29;6.40;99.90
11615;DHT22;5863;52.832;4.758;2022-12-07T04:08:58;6.40;99.90
11615;DHT22;5863;52.832;4.758;2022-12-07T04:11:24;6.40;99.90
11615;DHT22;5863;52.832;4.758;2022-12-07T04:13:52;6.50;99.90
11615;DHT22;5863;52.832;4.758;2022-12-07T04:16:38;6.50;99.90
11615;DHT22;5863;52.832;4.758;2022-12-07T04:19:04;6.60;99.90
11615;DHT22;5863;52.832;4.758;2022-12-07T04:21:32;6.60;99.90
11615;DHT22;5863;52.832;4.758;2022-12-07T04:23:59;6.60;99.90
11615;DHT22;5863;52.832;4.758;2022-12-07T04:26:26;6.60;99.90
11615;DHT22;5863;52.832;4.758;2022-12-07T04:28:52;6.60;99.90
11615;DHT22;5863;52.832;4.758;2022-12-07T04:31:19;6.60;99.90
11615;DHT22;5863;52.832;4.758;2022-12-07T04:33:47;6.50;99.90
11615;DHT22;5863;52.832;4.758;2022-12-07T04:36:16;6.50;99.90
11615;DHT22;5863;52.832;4.758;2022-12-07T04:38:42;6.60;99.90
11615;DHT22;5863;52.832;4.758;2022-12-07T04:41:09;6.60;99.90
11615;DHT22;5863;52.832;4.758;2022-12-07T04:43:42;6.60;99.90
11615;DHT22;5863;52.832;4.758;2022-12-07T04:46:08;6.60;99.90
11615;DHT22;5863;52.832;4.758;2022-12-07T04:48:35;6.60;99.90
11615;DHT22;5863;52.832;4.758;2022-12-07T04:51:04;6.50;99.90
11615;DHT22;5863;52.832;4.758;2022-12-07T04:53:37;6.40;99.90
11615;DHT22;5863;52.832;4.758;2022-12-07T04:56:04;6.40;99.90
11615;DHT22;5863;52.832;4.758;2022-12-07T04:58:31;6.40;99.90
11615;DHT22;5863;52.832;4.758;2022-12-07T05:00:57;6.40;99.90
11615;DHT22;5863;52.832;4.758;2022-12-07T05:03:24;6.40;99.90
11615;DHT22;5863;52.832;4.758;2022-12-07T05:05:51;6.50;99.90
11615;DHT22;5863;52.832;4.758;2022-12-07T05:08:19;6.40;99.90
11615;DHT22;5863;52.832;4.758;2022-12-07T05:10:45;6.50;99.90
11615;DHT22;5863;52.832;4.758;2022-12-07T05:13:12;6.60;99.90
11615;DHT22;5863;52.832;4.758;2022-12-07T05:15:39;6.40;99.90
11615;DHT22;5863;52.832;4.758;2022-12-07T05:18:05;6.50;99.90
11615;DHT22;5863;52.832;4.758;2022-12-07T05:20:32;6.40;99.90
11615;DHT22;5863;52.832;4.758;2022-12-07T05:23:29;6.50;99.90
11615;DHT22;5863;52.832;4.758;2022-12-07T05:26:00;6.50;99.90
11615;DHT22;5863;52.832;4.758;2022-12-07T05:28:26;6.50;99.90
11615;DHT22;5863;52.832;4.758;2022-12-07T05:30:53;6.40;99.90
11615;DHT22;5863;52.832;4.758;2022-12-07T05:33:30;6.50;99.90
11615;DHT22;5863;52.832;4.758;2022-12-07T05:35:57;6.60;99.90
11615;DHT22;5863;52.832;4.758;2022-12-07T05:38:25;6.60;99.90
11615;DHT22;5863;52.832;4.758;2022-12-07T05:40:52;6.60;99.90
11615;DHT22;5863;52.832;4.758;2022-12-07T05:43:18;6.60;99.90
11615;DHT22;5863;52.832;4.758;2022-12-07T05:45:45;6.60;99.90
11615;DHT22;5863;52.832;4.758;2022-12-07T05:48:12;6.50;99.90
11615;DHT22;5863;52.832;4.758;2022-12-07T05:50:38;6.50;99.90
11615;DHT22;5863;52.832;4.758;2022-12-07T05:53:05;6.50;99.90
11615;DHT22;5863;52.832;4.758;2022-12-07T05:55:33;6.50;99.90
11615;DHT22;5863;52.832;4.758;2022-12-07T05:58:00;6.40;99.90
11615;DHT22;5863;52.832;4.758;2022-12-07T06:00:43;6.40;99.90
11615;DHT22;5863;52.832;4.758;2022-12-07T06:03:33;6.40;99.90
11615;DHT22;5863;52.832;4.758;2022-12-07T06:06:02;6.40;99.90
11615;DHT22;5863;52.832;4.758;2022-12-07T06:08:29;6.50;99.90
11615;DHT22;5863;52.832;4.758;2022-12-07T06:10:57;6.50;99.90
11615;DHT22;5863;52.832;4.758;2022-12-07T06:13:38;6.60;99.90
11615;DHT22;5863;52.832;4.758;2022-12-07T06:16:06;6.60;99.90
11615;DHT22;5863;52.832;4.758;2022-12-07T06:18:32;6.60;99.90
11615;DHT22;5863;52.832;4.758;2022-12-07T06:21:00;6.60;99.90
11615;DHT22;5863;52.832;4.758;2022-12-07T06:23:27;6.60;99.90
11615;DHT22;5863;52.832;4.758;2022-12-07T06:25:54;6.70;99.90
11615;DHT22;5863;52.832;4.758;2022-12-07T06:28:22;6.70;99.90
11615;DHT22;5863;52.832;4.758;2022-12-07T06:30:57;6.70;99.90
11615;DHT22;5863;52.832;4.758;2022-12-07T06:33:23;6.60;99.90
11615;DHT22;5863;52.832;4.758;2022-12-07T06:35:52;6.50;99.90
11615;DHT22;5863;52.832;4.758;2022-12-07T06:38:19;6.50;99.90
11615;DHT22;5863;52.832;4.758;2022-12-07T06:40:45;6.40;99.90
11615;DHT22;5863;52.832;4.758;2022-12-07T06:43:12;6.40;99.90
11615;DHT22;5863;52.832;4.758;2022-12-07T06:45:40;6.40;99.90
11615;DHT22;5863;52.832;4.758;2022-12-07T06:48:07;6.50;99.90
11615;DHT22;5863;52.832;4.758;2022-12-07T06:50:34;6.60;99.90
11615;DHT22;5863;52.832;4.758;2022-12-07T06:53:00;6.50;99.90
11615;DHT22;5863;52.832;4.758;2022-12-07T06:55:27;6.50;99.90
11615;DHT22;5863;52.832;4.758;2022-12-07T06:57:53;6.50;99.90
11615;DHT22;5863;52.832;4.758;2022-12-07T07:00:21;6.50;99.90
11615;DHT22;5863;52.832;4.758;2022-12-07T07:02:49;6.40;99.90
11615;DHT22;5863;52.832;4.758;2022-12-07T07:05:16;6.30;99.90
11615;DHT22;5863;52.832;4.758;2022-12-07T07:07:42;6.20;99.90
11615;DHT22;5863;52.832;4.758;2022-12-07T07:10:09;6.20;99.90
11615;DHT22;5863;52.832;4.758;2022-12-07T07:12:37;6.20;99.90
11615;DHT22;5863;52.832;4.758;2022-12-07T07:15:05;6.10;99.90
11615;DHT22;5863;52.832;4.758;2022-12-07T07:17:31;6.10;99.90
11615;DHT22;5863;52.832;4.758;2022-12-07T07:19:59;6.00;99.90
11615;DHT22;5863;52.832;4.758;2022-12-07T07:22:26;6.10;99.90
11615;DHT22;5863;52.832;4.758;2022-12-07T07:24:53;6.10;99.90
11615;DHT22;5863;52.832;4.758;2022-12-07T07:27:22;6.10;99.90
11615;DHT22;5863;52.832;4.758;2022-12-07T07:29:48;6.20;99.90
11615;DHT22;5863;52.832;4.758;2022-12-07T07:32:15;6.20;99.90
11615;DHT22;5863;52.832;4.758;2022-12-07T07:34:42;6.10;99.90
11615;DHT22;5863;52.832;4.758;2022-12-07T07:37:10;6.20;99.90
11615;DHT22;5863;52.832;4.758;2022-12-07T07:39:38;6.10;99.90
11615;DHT22;5863;52.832;4.758;2022-12-07T07:42:05;6.10;99.90
11615;DHT22;5863;52.832;4.758;2022-12-07T07:44:32;6.20;99.90
11615;DHT22;5863;52.832;4.758;2022-12-07T07:46:59;6.10;99.90
11615;DHT22;5863;52.832;4.758;2022-12-07T07:49:26;6.10;99.90
11615;DHT22;5863;52.832;4.758;2022-12-07T07:51:53;6.00;99.90
11615;DHT22;5863;52.832;4.758;2022-12-07T07:54:21;6.00;99.90
11615;DHT22;5863;52.832;4.758;2022-12-07T07:56:47;6.00;99.90
11615;DHT22;5863;52.832;4.758;2022-12-07T07:59:14;5.90;99.90
11615;DHT22;5863;52.832;4.758;2022-12-07T08:01:41;5.90;99.90
11615;DHT22;5863;52.832;4.758;2022-12-07T08:04:09;5.90;99.90
11615;DHT22;5863;52.832;4.758;2022-12-07T08:06:36;5.90;99.90
11615;DHT22;5863;52.832;4.758;2022-12-07T08:09:03;5.90;99.90
11615;DHT22;5863;52.832;4.758;2022-12-07T08:11:33;5.80;99.90
11615;DHT22;5863;52.832;4.758;2022-12-07T08:14:19;5.80;99.90
11615;DHT22;5863;52.832;4.758;2022-12-07T08:16:45;5.80;99.90
11615;DHT22;5863;52.832;4.758;2022-12-07T08:19:12;5.90;99.90
11615;DHT22;5863;52.832;4.758;2022-12-07T08:21:52;6.00;99.90
11615;DHT22;5863;52.832;4.758;2022-12-07T08:24:20;6.20;99.90
11615;DHT22;5863;52.832;4.758;2022-12-07T08:26:51;6.20;99.90
11615;DHT22;5863;52.832;4.758;2022-12-07T08:29:17;6.30;99.90
11615;DHT22;5863;52.832;4.758;2022-12-07T08:31:45;6.30;99.90
11615;DHT22;5863;52.832;4.758;2022-12-07T08:34:22;6.40;99.90
11615;DHT22;5863;52.832;4.758;2022-12-07T08:36:51;6.40;99.90
11615;DHT22;5863;52.832;4.758;2022-12-07T08:39:18;6.50;99.90
11615;DHT22;5863;52.832;4.758;2022-12-07T08:41:45;6.50;99.90
11615;DHT22;5863;52.832;4.758;2022-12-07T08:44:21;6.50;99.90
11615;DHT22;5863;52.832;4.758;2022-12-07T08:46:58;6.40;99.90
11615;DHT22;5863;52.832;4.758;2022-12-07T08:49:31;6.40;99.90
11615;DHT22;5863;52.832;4.758;2022-12-07T08:52:01;6.40;99.90
11615;DHT22;5863;52.832;4.758;2022-12-07T08:54:30;6.40;99.90
11615;DHT22;5863;52.832;4.758;2022-12-07T08:56:57;6.40;99.90
11615;DHT22;5863;52.832;4.758;2022-12-07T08:59:26;6.30;99.90
11615;DHT22;5863;52.832;4.758;2022-12-07T09:01:54;6.30;99.90
11615;DHT22;5863;52.832;4.758;2022-12-07T09:04:22;6.40;99.90
11615;DHT22;5863;52.832;4.758;2022-12-07T09:06:49;6.40;99.90
11615;DHT22;5863;52.832;4.758;2022-12-07T09:09:16;6.60;99.90
11615;DHT22;5863;52.832;4.758;2022-12-07T09:11:43;6.80;99.90
11615;DHT22;5863;52.832;4.758;2022-12-07T09:14:10;6.90;99.90
11615;DHT22;5863;52.832;4.758;2022-12-07T09:16:39;6.90;99.90
11615;DHT22;5863;52.832;4.758;2022-12-07T09:19:05;7.00;99.90
11615;DHT22;5863;52.832;4.758;2022-12-07T09:21:32;7.00;99.90
11615;DHT22;5863;52.832;4.758;2022-12-07T09:23:59;7.00;99.90
11615;DHT22;5863;52.832;4.758;2022-12-07T09:26:25;7.00;99.90
11615;DHT22;5863;52.832;4.758;2022-12-07T09:28:53;7.00;99.90
11615;DHT22;5863;52.832;4.758;2022-12-07T09:31:20;7.00;99.90
11615;DHT22;5863;52.832;4.758;2022-12-07T09:33:58;6.90;99.90
11615;DHT22;5863;52.832;4.758;2022-12-07T09:36:26;7.10;99.90
11615;DHT22;5863;52.832;4.758;2022-12-07T09:38:53;7.10;99.90
11615;DHT22;5863;52.832;4.758;2022-12-07T09:41:20;7.10;99.90
11615;DHT22;5863;52.832;4.758;2022-12-07T09:43:48;7.10;99.90
11615;DHT22;5863;52.832;4.758;2022-12-07T09:46:16;7.10;99.90
11615;DHT22;5863;52.832;4.758;2022-12-07T09:48:44;7.10;99.90
11615;DHT22;5863;52.832;4.758;2022-12-07T09:51:17;7.20;99.90
11615;DHT22;5863;52.832;4.758;2022-12-07T09:53:48;7.20;99.90
11615;DHT22;5863;52.832;4.758;2022-12-07T09:56:17;7.30;99.90
11615;DHT22;5863;52.832;4.758;2022-12-07T09:58:45;7.40;99.90
11615;DHT22;5863;52.832;4.758;2022-12-07T10:01:15;7.30;99.90
11615;DHT22;5863;52.832;4.758;2022-12-07T10:03:47;7.40;99.90
11615;DHT22;5863;52.832;4.758;2022-12-07T10:06:16;7.40;99.90
11615;DHT22;5863;52.832;4.758;2022-12-07T10:08:43;7.50;99.90
11615;DHT22;5863;52.832;4.758;2022-12-07T10:11:10;7.50;99.90
11615;DHT22;5863;52.832;4.758;2022-12-07T10:13:38;7.50;99.90
11615;DHT22;5863;52.832;4.758;2022-12-07T10:16:06;7.60;99.90
11615;DHT22;5863;52.832;4.758;2022-12-07T10:18:41;7.70;99.90
11615;DHT22;5863;52.832;4.758;2022-12-07T10:21:13;7.80;99.90
11615;DHT22;5863;52.832;4.758;2022-12-07T10:24:00;7.80;99.90
11615;DHT22;5863;52.832;4.758;2022-12-07T10:26:32;7.90;99.90
11615;DHT22;5863;52.832;4.758;2022-12-07T10:29:00;7.90;99.90
11615;DHT22;5863;52.832;4.758;2022-12-07T10:31:29;8.00;99.90
11615;DHT22;5863;52.832;4.758;2022-12-07T10:33:57;8.20;99.90
11615;DHT22;5863;52.832;4.758;2022-12-07T10:36:34;8.30;99.90
11615;DHT22;5863;52.832;4.758;2022-12-07T10:39:10;8.20;99.90
11615;DHT22;5863;52.832;4.758;2022-12-07T10:41:53;8.30;99.90
11615;DHT22;5863;52.832;4.758;2022-12-07T10:44:21;8.10;99.90
11615;DHT22;5863;52.832;4.758;2022-12-07T10:47:08;8.10;99.90
11615;DHT22;5863;52.832;4.758;2022-12-07T10:50:01;8.10;99.90
11615;DHT22;5863;52.832;4.758;2022-12-07T10:52:43;8.00;99.90
11615;DHT22;5863;52.832;4.758;2022-12-07T10:55:20;8.10;99.90
11615;DHT22;5863;52.832;4.758;2022-12-07T10:58:01;8.10;99.90
11615;DHT22;5863;52.832;4.758;2022-12-07T11:00:35;8.30;99.90
11615;DHT22;5863;52.832;4.758;2022-12-07T11:03:22;8.50;99.90
11615;DHT22;5863;52.832;4.758;2022-12-07T11:05:55;8.70;99.90
11615;DHT22;5863;52.832;4.758;2022-12-07T11:08:39;8.90;99.90
11615;DHT22;5863;52.832;4.758;2022-12-07T11:11:14;9.10;99.90
11615;DHT22;5863;52.832;4.758;2022-12-07T11:13:48;9.10;99.90
11615;DHT22;5863;52.832;4.758;2022-12-07T11:16:23;9.10;99.90
11615;DHT22;5863;52.832;4.758;2022-12-07T11:19:12;9.20;99.90
11615;DHT22;5863;52.832;4.758;2022-12-07T11:21:48;9.30;99.90
11615;DHT22;5863;52.832;4.758;2022-12-07T11:24:19;9.20;99.90
11615;DHT22;5863;52.832;4.758;2022-12-07T11:27:06;9.30;99.90
11615;DHT22;5863;52.832;4.758;2022-12-07T11:29:52;9.20;99.90
11615;DHT22;5863;52.832;4.758;2022-12-07T11:32:28;8.90;99.90
11615;DHT22;5863;52.832;4.758;2022-12-07T11:35:07;8.70;99.90
11615;DHT22;5863;52.832;4.758;2022-12-07T11:37:36;8.40;99.90
11615;DHT22;5863;52.832;4.758;2022-12-07T11:40:13;8.30;99.90
11615;DHT22;5863;52.832;4.758;2022-12-07T11:42:46;8.20;99.90
11615;DHT22;5863;52.832;4.758;2022-12-07T11:45:20;8.10;99.90
11615;DHT22;5863;52.832;4.758;2022-12-07T11:47:53;7.90;99.90
11615;DHT22;5863;52.832;4.758;2022-12-07T11:50:32;7.90;99.90
11615;DHT22;5863;52.832;4.758;2022-12-07T11:53:03;7.90;99.90
11615;DHT22;5863;52.832;4.758;2022-12-07T11:55:41;7.90;99.90
11615;DHT22;5863;52.832;4.758;2022-12-07T11:58:20;7.90;99.90
11615;DHT22;5863;52.832;4.758;2022-12-07T12:00:50;8.00;99.90
11615;DHT22;5863;52.832;4.758;2022-12-07T12:03:25;8.10;99.90
11615;DHT22;5863;52.832;4.758;2022-12-07T12:05:55;8.30;99.90
11615;DHT22;5863;52.832;4.758;2022-12-07T12:08:29;8.50;99.90
11615;DHT22;5863;52.832;4.758;2022-12-07T12:11:03;8.70;99.90
11615;DHT22;5863;52.832;4.758;2022-12-07T12:14:08;8.80;99.90
11615;DHT22;5863;52.832;4.758;2022-12-07T12:17:04;9.00;99.90
11615;DHT22;5863;52.832;4.758;2022-12-07T12:19:37;9.10;99.90
11615;DHT22;5863;52.832;4.758;2022-12-07T12:22:12;9.10;99.90
11615;DHT22;5863;52.832;4.758;2022-12-07T12:24:40;9.10;99.90
11615;DHT22;5863;52.832;4.758;2022-12-07T12:27:19;9.20;99.90
11615;DHT22;5863;52.832;4.758;2022-12-07T12:29:52;9.20;99.90
11615;DHT22;5863;52.832;4.758;2022-12-07T12:32:21;9.20;99.90
11615;DHT22;5863;52.832;4.758;2022-12-07T12:35:02;9.30;99.90
11615;DHT22;5863;52.832;4.758;2022-12-07T12:37:43;9.20;99.90
11615;DHT22;5863;52.832;4.758;2022-12-07T12:40:42;9.20;99.90
11615;DHT22;5863;52.832;4.758;2022-12-07T12:43:47;9.20;99.90
11615;DHT22;5863;52.832;4.758;2022-12-07T12:46:38;9.10;99.90
11615;DHT22;5863;52.832;4.758;2022-12-07T12:49:38;9.10;99.90
11615;DHT22;5863;52.832;4.758;2022-12-07T12:58:32;8.50;99.90
11615;DHT22;5863;52.832;4.758;2022-12-07T13:04:27;8.10;99.90
11615;DHT22;5863;52.832;4.758;2022-12-07T13:06:55;8.00;99.90
11615;DHT22;5863;52.832;4.758;2022-12-07T13:09:24;7.80;99.90
11615;DHT22;5863;52.832;4.758;2022-12-07T13:12:01;7.80;99.90
11615;DHT22;5863;52.832;4.758;2022-12-07T13:14:40;7.80;99.90
11615;DHT22;5863;52.832;4.758;2022-12-07T13:17:58;7.70;99.90
11615;DHT22;5863;52.832;4.758;2022-12-07T13:23:35;7.70;99.90
11615;DHT22;5863;52.832;4.758;2022-12-07T13:26:21;7.70;99.90
11615;DHT22;5863;52.832;4.758;2022-12-07T13:28:51;7.80;99.90
11615;DHT22;5863;52.832;4.758;2022-12-07T13:31:32;7.80;99.90
11615;DHT22;5863;52.832;4.758;2022-12-07T13:34:02;7.70;99.90
11615;DHT22;5863;52.832;4.758;2022-12-07T13:36:32;7.70;99.90
11615;DHT22;5863;52.832;4.758;2022-12-07T13:39:16;7.70;99.90
11615;DHT22;5863;52.832;4.758;2022-12-07T13:41:46;7.60;99.90
11615;DHT22;5863;52.832;4.758;2022-12-07T13:44:16;7.60;99.90
11615;DHT22;5863;52.832;4.758;2022-12-07T13:46:49;7.60;99.90
11615;DHT22;5863;52.832;4.758;2022-12-07T13:49:23;7.60;99.90
11615;DHT22;5863;52.832;4.758;2022-12-07T13:51:50;7.60;99.90
11615;DHT22;5863;52.832;4.758;2022-12-07T13:54:19;7.60;99.90
11615;DHT22;5863;52.832;4.758;2022-12-07T13:56:49;7.60;99.90
11615;DHT22;5863;52.832;4.758;2022-12-07T13:59:18;7.80;99.90
11615;DHT22;5863;52.832;4.758;2022-12-07T14:01:47;7.80;99.90
11615;DHT22;5863;52.832;4.758;2022-12-07T14:04:34;7.70;99.90
11615;DHT22;5863;52.832;4.758;2022-12-07T14:07:19;7.60;99.90
11615;DHT22;5863;52.832;4.758;2022-12-07T14:09:59;7.50;99.90
11615;DHT22;5863;52.832;4.758;2022-12-07T14:12:27;7.50;99.90
11615;DHT22;5863;52.832;4.758;2022-12-07T14:14:55;7.50;99.90
11615;DHT22;5863;52.832;4.758;2022-12-07T14:17:25;7.40;99.90
11615;DHT22;5863;52.832;4.758;2022-12-07T14:19:54;7.40;99.90
11615;DHT22;5863;52.832;4.758;2022-12-07T14:22:25;7.40;99.90
11615;DHT22;5863;52.832;4.758;2022-12-07T14:24:59;7.40;99.90
11615;DHT22;5863;52.832;4.758;2022-12-07T14:27:31;7.30;99.90
11615;DHT22;5863;52.832;4.758;2022-12-07T14:29:59;7.30;99.90
11615;DHT22;5863;52.832;4.758;2022-12-07T14:32:27;7.30;99.90
11615;DHT22;5863;52.832;4.758;2022-12-07T14:35:01;7.30;99.90
11615;DHT22;5863;52.832;4.758;2022-12-07T14:37:29;7.30;99.90
11615;DHT22;5863;52.832;4.758;2022-12-07T14:39:56;7.30;99.90
11615;DHT22;5863;52.832;4.758;2022-12-07T14:42:26;7.20;99.90
11615;DHT22;5863;52.832;4.758;2022-12-07T14:44:54;7.20;99.90
11615;DHT22;5863;52.832;4.758;2022-12-07T14:47:20;7.20;99.90
11615;DHT22;5863;52.832;4.758;2022-12-07T14:49:47;7.20;99.90
11615;DHT22;5863;52.832;4.758;2022-12-07T14:52:18;7.10;99.90
11615;DHT22;5863;52.832;4.758;2022-12-07T14:54:45;7.10;99.90
11615;DHT22;5863;52.832;4.758;2022-12-07T14:57:12;7.00;99.90
11615;DHT22;5863;52.832;4.758;2022-12-07T14:59:39;7.00;99.90
11615;DHT22;5863;52.832;4.758;2022-12-07T15:02:06;7.00;99.90
11615;DHT22;5863;52.832;4.758;2022-12-07T15:04:35;6.90;99.90
11615;DHT22;5863;52.832;4.758;2022-12-07T15:07:04;6.90;99.90
11615;DHT22;5863;52.832;4.758;2022-12-07T15:09:32;7.00;99.90
11615;DHT22;5863;52.832;4.758;2022-12-07T15:11:59;6.90;99.90
11615;DHT22;5863;52.832;4.758;2022-12-07T15:14:26;6.90;99.90
11615;DHT22;5863;52.832;4.758;2022-12-07T15:16:52;6.90;99.90
11615;DHT22;5863;52.832;4.758;2022-12-07T15:19:20;7.00;99.90
11615;DHT22;5863;52.832;4.758;2022-12-07T15:21:50;7.00;99.90
11615;DHT22;5863;52.832;4.758;2022-12-07T15:24:18;6.90;99.90
11615;DHT22;5863;52.832;4.758;2022-12-07T15:26:46;6.80;99.90
11615;DHT22;5863;52.832;4.758;2022-12-07T15:29:13;6.80;99.90
11615;DHT22;5863;52.832;4.758;2022-12-07T15:31:41;6.70;99.90
11615;DHT22;5863;52.832;4.758;2022-12-07T15:34:07;6.60;99.90
11615;DHT22;5863;52.832;4.758;2022-12-07T15:36:35;6.60;99.90
11615;DHT22;5863;52.832;4.758;2022-12-07T15:39:02;6.50;99.90
11615;DHT22;5863;52.832;4.758;2022-12-07T15:41:29;6.50;99.90
11615;DHT22;5863;52.832;4.758;2022-12-07T15:43:57;6.50;99.90
11615;DHT22;5863;52.832;4.758;2022-12-07T15:46:41;6.50;99.90
11615;DHT22;5863;52.832;4.758;2022-12-07T15:49:12;6.50;99.90
11615;DHT22;5863;52.832;4.758;2022-12-07T15:51:39;6.50;99.90
11615;DHT22;5863;52.832;4.758;2022-12-07T15:54:06;6.50;99.90
11615;DHT22;5863;52.832;4.758;2022-12-07T15:56:33;6.50;99.90
11615;DHT22;5863;52.832;4.758;2022-12-07T15:59:01;6.40;99.90
11615;DHT22;5863;52.832;4.758;2022-12-07T16:01:28;6.50;99.90
11615;DHT22;5863;52.832;4.758;2022-12-07T16:03:56;6.50;99.90
11615;DHT22;5863;52.832;4.758;2022-12-07T16:06:24;6.50;99.90
11615;DHT22;5863;52.832;4.758;2022-12-07T16:08:52;6.50;99.90
11615;DHT22;5863;52.832;4.758;2022-12-07T16:11:19;6.40;99.90
11615;DHT22;5863;52.832;4.758;2022-12-07T16:13:45;6.50;99.90
11615;DHT22;5863;52.832;4.758;2022-12-07T16:16:16;6.50;99.90
11615;DHT22;5863;52.832;4.758;2022-12-07T16:18:44;6.60;99.90
11615;DHT22;5863;52.832;4.758;2022-12-07T16:21:12;6.50;99.90
11615;DHT22;5863;52.832;4.758;2022-12-07T16:23:39;6.50;99.90
11615;DHT22;5863;52.832;4.758;2022-12-07T16:26:07;6.50;99.90
11615;DHT22;5863;52.832;4.758;2022-12-07T16:28:35;6.50;99.90
11615;DHT22;5863;52.832;4.758;2022-12-07T16:31:03;6.50;99.90
11615;DHT22;5863;52.832;4.758;2022-12-07T16:33:32;6.60;99.90
11615;DHT22;5863;52.832;4.758;2022-12-07T16:35:58;6.60;99.90
11615;DHT22;5863;52.832;4.758;2022-12-07T16:38:26;6.60;99.90
11615;DHT22;5863;52.832;4.758;2022-12-07T16:40:53;6.50;99.90
11615;DHT22;5863;52.832;4.758;2022-12-07T16:43:22;6.50;99.90